createdAt,value
2017-11-18T00:00:03.884Z,5.90
2017-11-18T00:01:03.859Z,5.82
2017-11-18T00:02:03.839Z,5.84
2017-11-18T00:03:03.816Z,5.62
2017-11-18T00:04:03.793Z,5.73
2017-11-18T00:05:03.779Z,5.69
2017-11-18T00:06:03.764Z,5.57
2017-11-18T00:07:03.732Z,5.76
2017-11-18T00:08:03.715Z,5.65
2017-11-18T00:09:03.694Z,5.73
2017-11-18T00:10:03.677Z,5.84
2017-11-18T00:11:03.651Z,5.85
2017-11-18T00:12:03.632Z,5.79
2017-11-18T00:13:03.609Z,5.70
2017-11-18T00:14:03.591Z,5.59
2017-11-18T00:15:03.575Z,5.84
2017-11-18T00:16:03.552Z,5.69
2017-11-18T00:17:03.537Z,5.73
2017-11-18T00:18:03.512Z,5.72
2017-11-18T00:19:03.491Z,5.51
2017-11-18T00:20:03.483Z,5.48
2017-11-18T00:21:03.449Z,5.27
2017-11-18T00:22:03.435Z,5.32
2017-11-18T00:23:03.414Z,5.41
2017-11-18T00:24:03.396Z,5.44
2017-11-18T00:25:03.364Z,5.51
2017-11-18T00:26:03.345Z,5.47
2017-11-18T00:27:03.321Z,5.59
2017-11-18T00:28:03.300Z,5.54
2017-11-18T00:29:03.288Z,5.55
2017-11-18T00:30:03.272Z,5.52
2017-11-18T00:31:03.245Z,5.43
2017-11-18T00:32:03.241Z,5.37
2017-11-18T00:33:03.196Z,5.30
2017-11-18T00:34:03.184Z,5.22
2017-11-18T00:35:03.170Z,5.33
2017-11-18T00:36:03.151Z,5.40
2017-11-18T00:37:03.124Z,5.27
2017-11-18T00:38:03.107Z,5.34
2017-11-18T00:39:03.075Z,5.43
2017-11-18T00:40:03.062Z,5.30
2017-11-18T00:41:03.036Z,5.41
2017-11-18T00:42:03.016Z,5.36
2017-11-18T00:43:02.994Z,5.44
2017-11-18T00:44:02.976Z,5.36
2017-11-18T00:45:02.953Z,5.41
2017-11-18T00:46:02.944Z,5.44
2017-11-18T00:47:02.917Z,5.24
2017-11-18T00:48:02.889Z,5.18
2017-11-18T00:49:02.874Z,5.24
2017-11-18T00:50:02.852Z,5.30
2017-11-18T00:51:02.827Z,5.33
2017-11-18T00:52:02.813Z,5.41
2017-11-18T00:53:02.784Z,5.48
2017-11-18T00:54:02.765Z,5.43
2017-11-18T00:55:02.742Z,5.44
2017-11-18T00:56:02.724Z,5.43
2017-11-18T00:57:02.704Z,5.44
2017-11-18T00:58:02.680Z,5.57
2017-11-18T00:59:02.667Z,5.59
2017-11-18T01:00:02.644Z,5.57
2017-11-18T01:01:02.626Z,5.62
2017-11-18T01:02:02.604Z,5.66
2017-11-18T01:03:02.595Z,5.62
2017-11-18T01:04:02.558Z,5.62
2017-11-18T01:05:02.556Z,5.57
2017-11-18T01:06:02.524Z,5.50
2017-11-18T01:07:02.494Z,5.21
2017-11-18T01:08:02.474Z,5.14
2017-11-18T01:09:02.459Z,5.16
2017-11-18T01:10:02.442Z,5.14
2017-11-18T01:11:02.425Z,5.11
2017-11-18T01:12:02.395Z,5.01
2017-11-18T01:13:02.374Z,4.97
2017-11-18T01:14:02.358Z,5.01
2017-11-18T01:15:02.337Z,5.15
2017-11-18T01:16:02.316Z,5.32
2017-11-18T01:17:02.307Z,5.33
2017-11-18T01:18:02.286Z,5.18
2017-11-18T01:19:02.252Z,5.25
2017-11-18T01:20:02.246Z,5.25
2017-11-18T01:21:02.233Z,5.18
2017-11-18T01:22:02.201Z,5.12
2017-11-18T01:23:02.370Z,5.03
2017-11-18T01:24:02.175Z,4.94
2017-11-18T01:25:02.148Z,5.00
2017-11-18T01:26:02.100Z,5.01
2017-11-18T01:27:02.083Z,4.91
2017-11-18T01:28:02.066Z,4.98
2017-11-18T01:29:02.066Z,5.06
2017-11-18T01:30:02.036Z,4.98
2017-11-18T01:31:02.014Z,4.94
2017-11-18T01:32:01.982Z,4.79
2017-11-18T01:33:01.974Z,4.88
2017-11-18T01:34:01.937Z,4.97
2017-11-18T01:35:01.912Z,4.98
2017-11-18T01:36:01.891Z,4.89
2017-11-18T01:37:01.873Z,5.00
2017-11-18T01:38:01.851Z,4.96
2017-11-18T01:39:01.842Z,4.96
2017-11-18T01:40:01.824Z,5.01
2017-11-18T01:41:01.786Z,5.09
2017-11-18T01:42:01.773Z,5.21
2017-11-18T01:43:01.750Z,5.27
2017-11-18T01:44:01.730Z,5.27
2017-11-18T01:45:01.709Z,5.32
2017-11-18T01:46:01.680Z,5.19
2017-11-18T01:47:01.665Z,5.36
2017-11-18T01:48:01.749Z,5.32
2017-11-18T01:49:01.616Z,5.37
2017-11-18T01:50:01.606Z,5.47
2017-11-18T01:51:01.573Z,5.44
2017-11-18T01:52:01.654Z,5.43
2017-11-18T01:53:01.532Z,5.47
2017-11-18T01:54:01.551Z,5.41
2017-11-18T01:55:01.492Z,5.54
2017-11-18T01:56:01.486Z,5.39
2017-11-18T01:57:01.456Z,5.40
2017-11-18T01:58:01.484Z,5.54
2017-11-18T01:59:01.407Z,5.29
2017-11-18T02:00:01.441Z,5.39
2017-11-18T02:01:01.365Z,5.37
2017-11-18T02:02:01.401Z,5.29
2017-11-18T02:03:01.324Z,5.18
2017-11-18T02:04:01.302Z,5.21
2017-11-18T02:05:01.282Z,5.24
2017-11-18T02:06:01.264Z,5.16
2017-11-18T02:07:01.241Z,5.22
2017-11-18T02:08:01.225Z,5.29
2017-11-18T02:09:01.198Z,5.44
2017-11-18T02:10:01.178Z,5.34
2017-11-18T02:11:01.161Z,5.39
2017-11-18T02:12:01.144Z,5.50
2017-11-18T02:13:01.113Z,5.39
2017-11-18T02:14:01.147Z,5.44
2017-11-18T02:15:01.076Z,5.37
2017-11-18T02:16:01.103Z,5.21
2017-11-18T02:17:01.033Z,5.04
2017-11-18T02:18:01.167Z,5.15
2017-11-18T02:19:00.988Z,5.22
2017-11-18T02:20:01.037Z,5.22
2017-11-18T02:21:00.947Z,5.22
2017-11-18T02:22:00.976Z,5.25
2017-11-18T02:23:00.904Z,5.33
2017-11-18T02:24:00.886Z,5.32
2017-11-18T02:25:00.861Z,5.33
2017-11-18T02:26:00.874Z,5.51
2017-11-18T02:27:00.821Z,5.58
2017-11-18T02:28:00.797Z,5.50
2017-11-18T02:29:00.776Z,5.40
2017-11-18T02:30:00.755Z,5.44
2017-11-18T02:31:00.735Z,5.47
2017-11-18T02:32:00.717Z,5.44
2017-11-18T02:33:00.699Z,5.57
2017-11-18T02:34:00.675Z,5.41
2017-11-18T02:35:00.665Z,5.51
2017-11-18T02:36:00.631Z,5.40
2017-11-18T02:37:00.616Z,5.36
2017-11-18T02:38:00.593Z,5.33
2017-11-18T02:39:00.567Z,5.48
2017-11-18T02:40:00.545Z,5.47
2017-11-18T02:41:00.541Z,5.47
2017-11-18T02:42:00.528Z,5.44
2017-11-18T02:43:00.481Z,5.52
2017-11-18T02:44:00.471Z,5.61
2017-11-18T02:45:00.442Z,5.69
2017-11-18T02:46:00.421Z,5.62
2017-11-18T02:47:00.405Z,5.62
2017-11-18T02:48:00.381Z,5.54
2017-11-18T02:49:00.357Z,5.55
2017-11-18T02:50:00.342Z,5.58
2017-11-18T02:51:00.314Z,5.72
2017-11-18T02:52:00.302Z,5.59
2017-11-18T02:53:00.276Z,5.67
2017-11-18T02:54:00.253Z,5.75
2017-11-18T02:55:00.234Z,5.70
2017-11-18T02:56:00.215Z,5.82
2017-11-18T02:57:00.197Z,5.77
2017-11-18T02:58:00.174Z,5.70
2017-11-18T02:59:00.155Z,5.72
2017-11-18T03:00:00.133Z,5.62
2017-11-18T03:01:00.115Z,5.75
2017-11-18T03:02:00.098Z,5.80
2017-11-18T03:03:00.078Z,5.94
2017-11-18T03:04:00.047Z,5.77
2017-11-18T03:05:00.036Z,5.84
2017-11-18T03:06:00.006Z,5.66
2017-11-18T03:06:59.984Z,5.67
2017-11-18T03:07:59.964Z,5.70
2017-11-18T03:08:59.955Z,5.61
2017-11-18T03:09:59.933Z,5.66
2017-11-18T03:10:59.904Z,5.62
2017-11-18T03:11:59.883Z,5.75
2017-11-18T03:12:59.862Z,5.76
2017-11-18T03:13:59.840Z,5.85
2017-11-18T03:14:59.823Z,5.82
2017-11-18T03:15:59.805Z,5.82
2017-11-18T03:16:59.785Z,5.77
2017-11-18T03:17:59.757Z,5.75
2017-11-18T03:18:59.736Z,5.73
2017-11-18T03:19:59.714Z,5.70
2017-11-18T03:20:59.696Z,5.59
2017-11-18T03:21:59.672Z,5.52
2017-11-18T03:22:59.655Z,5.62
2017-11-18T03:23:59.629Z,5.62
2017-11-18T03:24:59.610Z,5.61
2017-11-18T03:25:59.597Z,5.66
2017-11-18T03:26:59.581Z,5.69
2017-11-18T03:27:59.553Z,5.73
2017-11-18T03:28:59.535Z,5.75
2017-11-18T03:29:59.515Z,5.73
2017-11-18T03:30:59.486Z,5.85
2017-11-18T03:31:59.474Z,5.79
2017-11-18T03:32:59.445Z,5.67
2017-11-18T03:33:59.424Z,5.73
2017-11-18T03:34:59.405Z,5.84
2017-11-18T03:35:59.380Z,5.85
2017-11-18T03:36:59.359Z,5.84
2017-11-18T03:37:59.345Z,5.95
2017-11-18T03:38:59.325Z,5.90
2017-11-18T03:39:59.304Z,5.90
2017-11-18T03:40:59.275Z,6.03
2017-11-18T03:41:59.253Z,5.95
2017-11-18T03:42:59.234Z,6.03
2017-11-18T03:43:59.213Z,6.05
2017-11-18T03:44:59.192Z,6.15
2017-11-18T03:45:59.173Z,6.18
2017-11-18T03:46:59.151Z,6.21
2017-11-18T03:47:59.133Z,6.15
2017-11-18T03:48:59.113Z,6.12
2017-11-18T03:49:59.093Z,6.15
2017-11-18T03:50:59.069Z,6.28
2017-11-18T03:51:59.054Z,6.18
2017-11-18T03:52:59.041Z,6.28
2017-11-18T03:53:59.012Z,6.32
2017-11-18T03:54:59.000Z,6.35
2017-11-18T03:55:58.967Z,6.35
2017-11-18T03:56:58.953Z,6.40
2017-11-18T03:57:58.930Z,6.43
2017-11-18T03:58:58.914Z,6.35
2017-11-18T03:59:58.894Z,6.42
2017-11-18T04:00:58.875Z,6.56
2017-11-18T04:01:58.843Z,6.57
2017-11-18T04:02:58.831Z,6.61
2017-11-18T04:03:58.803Z,6.55
2017-11-18T04:04:58.785Z,6.56
2017-11-18T04:05:58.764Z,6.50
2017-11-18T04:06:58.745Z,6.38
2017-11-18T04:07:58.724Z,6.34
2017-11-18T04:08:58.703Z,6.38
2017-11-18T04:09:58.684Z,6.40
2017-11-18T04:10:58.666Z,6.40
2017-11-18T04:11:58.644Z,6.46
2017-11-18T04:12:58.621Z,6.55
2017-11-18T04:13:58.605Z,6.47
2017-11-18T04:14:58.582Z,6.52
2017-11-18T04:15:58.563Z,6.57
2017-11-18T04:16:58.540Z,6.43
2017-11-18T04:17:58.524Z,6.35
2017-11-18T04:18:58.503Z,6.40
2017-11-18T04:19:58.479Z,6.52
2017-11-18T04:20:58.461Z,6.40
2017-11-18T04:21:58.437Z,6.25
2017-11-18T04:22:58.419Z,6.31
2017-11-18T04:23:58.399Z,6.34
2017-11-18T04:24:58.379Z,6.37
2017-11-18T04:25:58.362Z,6.30
2017-11-18T04:26:58.336Z,6.11
2017-11-18T04:27:58.329Z,6.02
2017-11-18T04:28:58.292Z,5.98
2017-11-18T04:29:58.272Z,5.94
2017-11-18T04:30:58.259Z,5.94
2017-11-18T04:31:58.236Z,6.00
2017-11-18T04:32:58.217Z,5.90
2017-11-18T04:33:58.195Z,6.00
2017-11-18T04:34:58.173Z,5.97
2017-11-18T04:35:58.150Z,5.91
2017-11-18T04:36:58.135Z,5.94
2017-11-18T04:37:58.115Z,5.95
2017-11-18T04:38:58.087Z,5.94
2017-11-18T04:39:58.073Z,5.98
2017-11-18T04:40:58.053Z,5.97
2017-11-18T04:41:58.026Z,6.02
2017-11-18T04:42:58.017Z,6.06
2017-11-18T04:43:57.987Z,5.97
2017-11-18T04:44:57.964Z,6.05
2017-11-18T04:45:57.946Z,6.13
2017-11-18T04:46:57.923Z,6.03
2017-11-18T04:47:57.902Z,5.98
2017-11-18T04:48:57.879Z,6.00
2017-11-18T04:49:57.870Z,5.93
2017-11-18T04:50:57.842Z,5.80
2017-11-18T04:51:57.819Z,5.87
2017-11-18T04:52:57.799Z,5.77
2017-11-18T04:53:57.776Z,5.88
2017-11-18T04:54:57.754Z,5.90
2017-11-18T04:55:57.737Z,5.98
2017-11-18T04:56:57.715Z,6.03
2017-11-18T04:57:57.696Z,6.11
2017-11-18T04:58:57.674Z,6.00
2017-11-18T04:59:57.653Z,5.90
2017-11-18T05:00:57.635Z,6.00
2017-11-18T05:01:57.628Z,5.93
2017-11-18T05:02:57.588Z,5.97
2017-11-18T05:03:57.574Z,5.88
2017-11-18T05:04:57.548Z,5.94
2017-11-18T05:05:57.569Z,6.02
2017-11-18T05:06:57.504Z,5.98
2017-11-18T05:07:57.484Z,5.94
2017-11-18T05:08:57.465Z,5.97
2017-11-18T05:09:57.443Z,5.98
2017-11-18T05:10:57.422Z,5.94
2017-11-18T05:11:57.397Z,5.82
2017-11-18T05:12:57.381Z,5.91
2017-11-18T05:13:57.359Z,5.95
2017-11-18T05:14:57.343Z,5.94
2017-11-18T05:15:57.324Z,6.00
2017-11-18T05:16:57.293Z,5.95
2017-11-18T05:17:57.273Z,5.84
2017-11-18T05:18:57.256Z,5.77
2017-11-18T05:19:57.230Z,5.84
2017-11-18T05:20:57.221Z,5.95
2017-11-18T05:21:57.188Z,5.90
2017-11-18T05:22:57.168Z,6.02
2017-11-18T05:23:57.146Z,5.98
2017-11-18T05:24:57.123Z,5.94
2017-11-18T05:25:57.103Z,6.00
2017-11-18T05:26:57.085Z,5.88
2017-11-18T05:27:57.064Z,5.95
2017-11-18T05:28:57.042Z,5.85
2017-11-18T05:29:57.024Z,5.84
2017-11-18T05:30:57.006Z,5.77
2017-11-18T05:31:56.979Z,5.84
2017-11-18T05:32:56.966Z,6.00
2017-11-18T05:33:56.944Z,6.06
2017-11-18T05:34:56.917Z,6.00
2017-11-18T05:35:56.892Z,5.98
2017-11-18T05:36:56.874Z,5.95
2017-11-18T05:37:56.852Z,6.00
2017-11-18T05:38:56.836Z,6.03
2017-11-18T05:39:56.812Z,6.05
2017-11-18T05:40:56.790Z,5.97
2017-11-18T05:41:56.770Z,5.93
2017-11-18T05:42:56.753Z,5.90
2017-11-18T05:43:56.730Z,5.95
2017-11-18T05:44:56.702Z,5.97
2017-11-18T05:45:56.682Z,5.95
2017-11-18T05:46:56.670Z,5.90
2017-11-18T05:47:56.643Z,6.08
2017-11-18T05:48:56.628Z,6.00
2017-11-18T05:49:56.600Z,6.06
2017-11-18T05:50:56.583Z,6.02
2017-11-18T05:51:56.567Z,6.00
2017-11-18T05:52:56.532Z,6.11
2017-11-18T05:53:56.514Z,6.08
2017-11-18T05:54:56.513Z,6.02
2017-11-18T05:55:56.474Z,6.02
2017-11-18T05:56:56.450Z,6.02
2017-11-18T05:57:56.431Z,6.00
2017-11-18T05:58:56.410Z,6.02
2017-11-18T05:59:56.388Z,6.06
2017-11-18T06:00:56.368Z,6.11
2017-11-18T06:01:56.348Z,6.09
2017-11-18T06:02:56.330Z,6.18
2017-11-18T06:03:56.314Z,6.12
2017-11-18T06:04:56.286Z,6.19
2017-11-18T06:05:56.262Z,5.95
2017-11-18T06:06:56.244Z,5.98
2017-11-18T06:07:56.222Z,5.94
2017-11-18T06:08:56.197Z,6.02
2017-11-18T06:09:56.186Z,5.94
2017-11-18T06:10:56.213Z,5.93
2017-11-18T06:11:56.134Z,5.94
2017-11-18T06:12:56.113Z,5.97
2017-11-18T06:13:56.092Z,5.91
2017-11-18T06:14:56.093Z,5.90
2017-11-18T06:15:56.058Z,6.05
2017-11-18T06:16:56.079Z,6.06
2017-11-18T06:17:56.010Z,6.09
2017-11-18T06:18:55.992Z,6.02
2017-11-18T06:19:55.966Z,6.02
2017-11-18T06:20:55.950Z,6.05
2017-11-18T06:21:55.925Z,6.16
2017-11-18T06:22:55.952Z,6.18
2017-11-18T06:23:55.882Z,6.18
2017-11-18T06:24:55.865Z,6.16
2017-11-18T06:25:55.838Z,6.05
2017-11-18T06:26:55.823Z,6.03
2017-11-18T06:27:55.812Z,6.02
2017-11-18T06:28:55.834Z,6.08
2017-11-18T06:29:55.757Z,5.95
2017-11-18T06:30:55.740Z,5.98
2017-11-18T06:31:55.717Z,6.02
2017-11-18T06:32:55.710Z,5.95
2017-11-18T06:33:55.672Z,6.02
2017-11-18T06:34:55.662Z,6.05
2017-11-18T06:35:55.633Z,6.05
2017-11-18T06:36:55.668Z,6.11
2017-11-18T06:37:55.588Z,6.21
2017-11-18T06:38:55.598Z,6.31
2017-11-18T06:39:55.545Z,6.31
2017-11-18T06:40:55.622Z,6.27
2017-11-18T06:41:55.502Z,6.37
2017-11-18T06:42:55.540Z,6.35
2017-11-18T06:43:55.474Z,6.38
2017-11-18T06:44:55.451Z,6.25
2017-11-18T06:45:55.422Z,6.31
2017-11-18T06:46:55.456Z,6.35
2017-11-18T06:47:55.381Z,6.37
2017-11-18T06:48:55.372Z,6.38
2017-11-18T06:49:55.344Z,6.46
2017-11-18T06:50:55.316Z,6.46
2017-11-18T06:51:55.297Z,6.45
2017-11-18T06:52:55.279Z,6.55
2017-11-18T06:53:55.253Z,6.55
2017-11-18T06:54:55.270Z,6.53
2017-11-18T06:55:55.218Z,6.60
2017-11-18T06:56:55.245Z,6.45
2017-11-18T06:57:55.171Z,6.53
2017-11-18T06:58:55.157Z,6.55
2017-11-18T06:59:55.137Z,6.55
2017-11-18T07:00:55.111Z,6.49
2017-11-18T07:01:55.094Z,6.53
2017-11-18T07:02:55.082Z,6.49
2017-11-18T07:03:55.052Z,6.53
2017-11-18T07:04:55.038Z,6.68
2017-11-18T07:05:55.005Z,6.97
2017-11-18T07:06:54.985Z,7.33
2017-11-18T07:07:54.966Z,7.50
2017-11-18T07:08:54.944Z,7.44
2017-11-18T07:09:54.920Z,7.44
2017-11-18T07:10:54.900Z,7.47
2017-11-18T07:11:54.900Z,7.33
2017-11-18T07:12:54.859Z,7.08
2017-11-18T07:13:54.841Z,6.93
2017-11-18T07:14:54.835Z,6.92
2017-11-18T07:15:54.804Z,6.85
2017-11-18T07:16:54.774Z,6.63
2017-11-18T07:17:54.754Z,6.60
2017-11-18T07:18:54.735Z,6.55
2017-11-18T07:19:54.714Z,6.60
2017-11-18T07:20:54.693Z,6.61
2017-11-18T07:21:54.675Z,6.61
2017-11-18T07:22:54.654Z,6.60
2017-11-18T07:23:54.635Z,6.68
2017-11-18T07:24:54.613Z,6.63
2017-11-18T07:25:54.591Z,6.65
2017-11-18T07:26:54.570Z,6.56
2017-11-18T07:27:54.555Z,6.65
2017-11-18T07:28:54.531Z,6.57
2017-11-18T07:29:54.507Z,6.49
2017-11-18T07:30:54.491Z,6.42
2017-11-18T07:31:54.476Z,6.47
2017-11-18T07:32:54.445Z,6.55
2017-11-18T07:33:54.425Z,6.61
2017-11-18T07:34:54.403Z,6.55
2017-11-18T07:35:54.387Z,6.60
2017-11-18T07:36:54.362Z,6.60
2017-11-18T07:37:54.345Z,6.61
2017-11-18T07:38:54.324Z,6.53
2017-11-18T07:39:54.303Z,6.47
2017-11-18T07:40:54.277Z,6.53
2017-11-18T07:41:54.273Z,6.57
2017-11-18T07:42:54.236Z,6.57
2017-11-18T07:43:54.225Z,6.55
2017-11-18T07:44:54.193Z,6.56
2017-11-18T07:45:54.174Z,6.57
2017-11-18T07:46:54.156Z,6.60
2017-11-18T07:47:54.142Z,6.60
2017-11-18T07:48:54.117Z,6.60
2017-11-18T07:49:54.095Z,6.56
2017-11-18T07:50:54.075Z,6.63
2017-11-18T07:51:54.060Z,6.57
2017-11-18T07:52:54.034Z,6.55
2017-11-18T07:53:54.017Z,6.61
2017-11-18T07:54:54.002Z,6.53
2017-11-18T07:55:53.972Z,6.60
2017-11-18T07:56:53.949Z,6.60
2017-11-18T07:57:53.924Z,6.60
2017-11-18T07:58:53.905Z,6.47
2017-11-18T07:59:53.884Z,6.57
2017-11-18T08:00:53.865Z,6.65
2017-11-18T08:01:53.850Z,6.57
2017-11-18T08:02:53.821Z,6.60
2017-11-18T08:03:53.808Z,6.56
2017-11-18T08:04:53.787Z,6.67
2017-11-18T08:05:53.767Z,6.65
2017-11-18T08:06:53.754Z,6.70
2017-11-18T08:07:53.726Z,6.74
2017-11-18T08:08:53.710Z,6.70
2017-11-18T08:09:53.674Z,6.68
2017-11-18T08:10:53.659Z,6.81
2017-11-18T08:11:53.644Z,6.79
2017-11-18T08:12:53.629Z,6.65
2017-11-18T08:13:53.592Z,6.68
2017-11-18T08:14:53.574Z,6.79
2017-11-18T08:15:53.554Z,6.74
2017-11-18T08:16:53.529Z,6.65
2017-11-18T08:17:53.515Z,6.70
2017-11-18T08:18:53.494Z,6.68
2017-11-18T08:19:53.469Z,6.78
2017-11-18T08:20:53.449Z,6.81
2017-11-18T08:21:53.435Z,6.82
2017-11-18T08:22:53.415Z,6.75
2017-11-18T08:23:53.396Z,6.68
2017-11-18T08:24:53.372Z,6.79
2017-11-18T08:25:53.348Z,6.81
2017-11-18T08:26:53.333Z,6.79
2017-11-18T08:27:53.307Z,6.74
2017-11-18T08:28:53.297Z,6.68
2017-11-18T08:29:53.264Z,6.64
2017-11-18T08:30:53.248Z,6.67
2017-11-18T08:31:53.246Z,6.70
2017-11-18T08:32:53.204Z,6.67
2017-11-18T08:33:53.181Z,6.63
2017-11-18T08:34:53.166Z,6.61
2017-11-18T08:35:53.143Z,6.63
2017-11-18T08:36:53.119Z,6.60
2017-11-18T08:37:53.106Z,6.60
2017-11-18T08:38:53.078Z,6.64
2017-11-18T08:39:53.061Z,6.67
2017-11-18T08:40:53.043Z,6.65
2017-11-18T08:41:53.020Z,6.73
2017-11-18T08:42:53.005Z,6.67
2017-11-18T08:43:52.987Z,6.73
2017-11-18T08:44:52.966Z,6.74
2017-11-18T08:45:52.934Z,6.78
2017-11-18T08:46:52.918Z,6.82
2017-11-18T08:47:52.906Z,6.79
2017-11-18T08:48:52.876Z,6.82
2017-11-18T08:49:52.875Z,6.75
2017-11-18T08:50:52.836Z,6.78
2017-11-18T08:51:52.818Z,6.82
2017-11-18T08:52:52.791Z,6.83
2017-11-18T08:53:52.770Z,6.82
2017-11-18T08:54:52.756Z,6.92
2017-11-18T08:55:52.732Z,6.92
2017-11-18T08:56:52.728Z,6.89
2017-11-18T08:57:52.706Z,6.93
2017-11-18T08:58:52.667Z,6.78
2017-11-18T08:59:52.643Z,6.93
2017-11-18T09:00:52.626Z,6.81
2017-11-18T09:01:52.605Z,6.81
2017-11-18T09:02:52.591Z,6.86
2017-11-18T09:03:52.562Z,6.86
2017-11-18T09:04:52.548Z,6.88
2017-11-18T09:05:52.521Z,6.96
2017-11-18T09:06:52.505Z,7.01
2017-11-18T09:07:52.483Z,7.00
2017-11-18T09:08:52.465Z,6.96
2017-11-18T09:09:52.442Z,6.96
2017-11-18T09:10:52.421Z,7.01
2017-11-18T09:11:52.397Z,6.99
2017-11-18T09:12:52.386Z,7.01
2017-11-18T09:13:52.356Z,7.15
2017-11-18T09:14:52.344Z,7.13
2017-11-18T09:15:52.319Z,7.10
2017-11-18T09:16:52.295Z,7.13
2017-11-18T09:17:52.275Z,7.15
2017-11-18T09:18:52.260Z,7.15
2017-11-18T09:19:52.234Z,7.13
2017-11-18T09:20:52.216Z,7.07
2017-11-18T09:21:52.194Z,7.08
2017-11-18T09:22:52.173Z,7.10
2017-11-18T09:23:52.152Z,7.11
2017-11-18T09:24:52.136Z,7.11
2017-11-18T09:25:52.110Z,7.26
2017-11-18T09:26:52.093Z,7.25
2017-11-18T09:27:52.078Z,7.04
2017-11-18T09:28:52.052Z,7.13
2017-11-18T09:29:52.035Z,7.11
2017-11-18T09:30:52.015Z,7.16
2017-11-18T09:31:51.992Z,7.13
2017-11-18T09:32:52.025Z,7.10
2017-11-18T09:33:51.944Z,7.10
2017-11-18T09:34:51.924Z,7.03
2017-11-18T09:35:51.903Z,7.11
2017-11-18T09:36:51.883Z,7.11
2017-11-18T09:37:51.869Z,7.24
2017-11-18T09:38:51.842Z,7.25
2017-11-18T09:39:51.825Z,7.25
2017-11-18T09:40:51.800Z,7.22
2017-11-18T09:41:51.786Z,7.26
2017-11-18T09:42:51.763Z,7.25
2017-11-18T09:43:51.754Z,7.16
2017-11-18T09:44:51.722Z,7.03
2017-11-18T09:45:51.703Z,7.07
2017-11-18T09:46:51.682Z,7.01
2017-11-18T09:47:51.662Z,7.10
2017-11-18T09:48:51.640Z,7.08
2017-11-18T09:49:51.620Z,7.21
2017-11-18T09:50:51.601Z,7.10
2017-11-18T09:51:51.611Z,7.10
2017-11-18T09:52:51.559Z,7.15
2017-11-18T09:53:51.533Z,7.11
2017-11-18T09:54:51.517Z,7.28
2017-11-18T09:55:51.497Z,7.28
2017-11-18T09:56:51.475Z,7.28
2017-11-18T09:57:51.454Z,7.24
2017-11-18T09:58:51.434Z,7.28
2017-11-18T09:59:51.419Z,7.25
2017-11-18T10:00:51.403Z,7.25
2017-11-18T10:01:51.374Z,7.28
2017-11-18T10:02:51.352Z,7.24
2017-11-18T10:03:51.335Z,7.28
2017-11-18T10:04:51.310Z,7.28
2017-11-18T10:05:51.292Z,7.31
2017-11-18T10:06:51.274Z,7.36
2017-11-18T10:07:51.249Z,7.33
2017-11-18T10:08:51.232Z,7.34
2017-11-18T10:09:51.212Z,7.22
2017-11-18T10:10:51.193Z,7.34
2017-11-18T10:11:51.170Z,7.33
2017-11-18T10:12:51.147Z,7.34
2017-11-18T10:13:51.133Z,7.39
2017-11-18T10:14:51.109Z,7.29
2017-11-18T10:15:51.088Z,7.16
2017-11-18T10:16:51.068Z,7.24
2017-11-18T10:17:51.068Z,7.21
2017-11-18T10:18:51.034Z,7.34
2017-11-18T10:19:51.005Z,7.34
2017-11-18T10:20:50.997Z,7.40
2017-11-18T10:21:50.963Z,7.33
2017-11-18T10:22:50.944Z,7.33
2017-11-18T10:23:50.927Z,7.37
2017-11-18T10:24:50.901Z,7.40
2017-11-18T10:25:50.883Z,7.28
2017-11-18T10:26:50.867Z,7.42
2017-11-18T10:27:50.853Z,7.40
2017-11-18T10:28:50.824Z,7.47
2017-11-18T10:29:50.803Z,7.39
2017-11-18T10:30:50.781Z,7.39
2017-11-18T10:31:50.764Z,7.31
2017-11-18T10:32:50.752Z,7.44
2017-11-18T10:33:50.724Z,7.46
2017-11-18T10:34:50.705Z,7.37
2017-11-18T10:35:50.681Z,7.36
2017-11-18T10:36:50.663Z,7.26
2017-11-18T10:37:50.644Z,7.49
2017-11-18T10:38:50.622Z,7.44
2017-11-18T10:39:50.598Z,7.40
2017-11-18T10:40:50.576Z,7.42
2017-11-18T10:41:50.558Z,7.37
2017-11-18T10:42:50.537Z,7.39
2017-11-18T10:43:50.525Z,7.42
2017-11-18T10:44:50.511Z,7.52
2017-11-18T10:45:50.507Z,7.60
2017-11-18T10:46:50.465Z,7.52
2017-11-18T10:47:50.442Z,7.40
2017-11-18T10:48:50.422Z,7.29
2017-11-18T10:49:50.397Z,7.36
2017-11-18T10:50:50.377Z,7.40
2017-11-18T10:51:50.371Z,7.47
2017-11-18T10:52:50.333Z,7.43
2017-11-18T10:53:50.317Z,7.42
2017-11-18T10:54:50.300Z,7.47
2017-11-18T10:55:50.280Z,7.39
2017-11-18T10:56:50.255Z,7.46
2017-11-18T10:57:50.233Z,7.54
2017-11-18T10:58:50.220Z,7.33
2017-11-18T10:59:50.198Z,7.39
2017-11-18T11:00:50.181Z,7.39
2017-11-18T11:01:50.154Z,7.34
2017-11-18T11:02:50.134Z,7.42
2017-11-18T11:03:50.114Z,7.37
2017-11-18T11:04:50.094Z,7.43
2017-11-18T11:05:50.070Z,7.42
2017-11-18T11:06:50.049Z,7.44
2017-11-18T11:07:50.030Z,7.46
2017-11-18T11:08:50.016Z,7.57
2017-11-18T11:09:49.993Z,7.50
2017-11-18T11:10:49.973Z,7.39
2017-11-18T11:11:49.952Z,7.36
2017-11-18T11:12:49.936Z,7.40
2017-11-18T11:13:49.916Z,7.43
2017-11-18T11:14:49.888Z,7.42
2017-11-18T11:15:49.876Z,7.37
2017-11-18T11:16:49.847Z,7.50
2017-11-18T11:17:49.829Z,7.49
2017-11-18T11:18:49.810Z,7.47
2017-11-18T11:19:49.799Z,7.33
2017-11-18T11:20:49.765Z,7.43
2017-11-18T11:21:49.749Z,7.55
2017-11-18T11:22:49.726Z,7.60
2017-11-18T11:23:49.701Z,7.62
2017-11-18T11:24:49.683Z,7.57
2017-11-18T11:25:49.664Z,7.52
2017-11-18T11:26:49.655Z,7.44
2017-11-18T11:27:49.629Z,7.50
2017-11-18T11:28:49.603Z,7.54
2017-11-18T11:29:49.584Z,7.47
2017-11-18T11:30:49.572Z,7.50
2017-11-18T11:31:49.545Z,7.58
2017-11-18T11:32:49.528Z,7.60
2017-11-18T11:33:49.507Z,7.71
2017-11-18T11:34:49.481Z,7.71
2017-11-18T11:35:49.464Z,7.76
2017-11-18T11:36:49.445Z,8.12
2017-11-18T11:37:49.420Z,8.38
2017-11-18T11:38:49.398Z,8.37
2017-11-18T11:39:49.382Z,8.81
2017-11-18T11:40:49.359Z,9.41
2017-11-18T11:41:49.340Z,9.54
2017-11-18T11:42:49.325Z,9.50
2017-11-18T11:43:49.306Z,9.26
2017-11-18T11:44:49.289Z,8.99
2017-11-18T11:45:49.268Z,9.23
2017-11-18T11:46:49.254Z,9.09
2017-11-18T11:47:49.236Z,9.60
2017-11-18T11:48:49.209Z,9.45
2017-11-18T11:49:49.193Z,9.23
2017-11-18T11:50:49.175Z,8.75
2017-11-18T11:51:49.163Z,8.77
2017-11-18T11:52:49.137Z,8.92
2017-11-18T11:53:49.137Z,8.92
2017-11-18T11:54:49.114Z,9.08
2017-11-18T11:55:49.085Z,9.22
2017-11-18T11:56:49.071Z,8.80
2017-11-18T11:57:49.055Z,8.71
2017-11-18T11:58:49.026Z,8.68
2017-11-18T11:59:49.008Z,8.90
2017-11-18T12:00:48.988Z,8.99
2017-11-18T12:01:48.975Z,8.70
2017-11-18T12:02:48.955Z,8.67
2017-11-18T12:03:48.934Z,8.70
2017-11-18T12:04:48.916Z,8.80
2017-11-18T12:05:48.904Z,8.71
2017-11-18T12:06:48.881Z,8.65
2017-11-18T12:07:48.859Z,8.65
2017-11-18T12:08:48.843Z,8.55
2017-11-18T12:09:48.830Z,8.60
2017-11-18T12:10:48.804Z,8.38
2017-11-18T12:11:48.784Z,8.23
2017-11-18T12:12:48.765Z,8.39
2017-11-18T12:13:48.746Z,8.47
2017-11-18T12:14:48.729Z,8.44
2017-11-18T12:15:48.715Z,8.29
2017-11-18T12:16:48.691Z,8.37
2017-11-18T12:17:48.667Z,8.39
2017-11-18T12:18:48.664Z,8.39
2017-11-18T12:19:48.633Z,8.28
2017-11-18T12:20:48.627Z,8.19
2017-11-18T12:21:48.595Z,8.19
2017-11-18T12:22:48.573Z,8.35
2017-11-18T12:23:48.555Z,8.32
2017-11-18T12:24:48.534Z,8.23
2017-11-18T12:25:48.517Z,8.42
2017-11-18T12:26:48.494Z,8.29
2017-11-18T12:27:48.480Z,8.32
2017-11-18T12:28:48.462Z,8.31
2017-11-18T12:29:48.488Z,8.28
2017-11-18T12:30:48.427Z,8.19
2017-11-18T12:31:48.455Z,8.14
2017-11-18T12:32:48.378Z,8.09
2017-11-18T12:33:48.409Z,8.09
2017-11-18T12:34:48.343Z,8.14
2017-11-18T12:35:48.374Z,8.10
2017-11-18T12:36:48.305Z,7.94
2017-11-18T12:37:48.281Z,7.98
2017-11-18T12:38:48.260Z,7.96
2017-11-18T12:39:48.246Z,7.99
2017-11-18T12:40:48.221Z,7.99
2017-11-18T12:41:48.204Z,8.05
2017-11-18T12:42:48.183Z,8.04
2017-11-18T12:43:48.164Z,7.91
2017-11-18T12:44:48.144Z,7.98
2017-11-18T12:45:48.183Z,7.95
2017-11-18T12:46:48.111Z,8.05
2017-11-18T12:47:48.133Z,7.98
2017-11-18T12:48:48.068Z,7.99
2017-11-18T12:49:48.046Z,8.06
2017-11-18T12:50:48.045Z,7.99
2017-11-18T12:51:48.054Z,8.04
2017-11-18T12:52:47.985Z,7.99
2017-11-18T12:53:48.016Z,8.06
2017-11-18T12:54:47.961Z,7.94
2017-11-18T12:55:47.928Z,7.87
2017-11-18T12:56:47.906Z,7.91
2017-11-18T12:57:47.887Z,7.86
2017-11-18T12:58:47.870Z,7.77
2017-11-18T12:59:47.856Z,7.64
2017-11-18T13:00:47.827Z,7.68
2017-11-18T13:01:47.804Z,7.80
2017-11-18T13:02:47.807Z,7.81
2017-11-18T13:03:47.767Z,7.80
2017-11-18T13:04:47.747Z,7.94
2017-11-18T13:05:47.725Z,7.96
2017-11-18T13:06:47.705Z,7.99
2017-11-18T13:07:47.684Z,7.94
2017-11-18T13:08:47.672Z,7.91
2017-11-18T13:09:47.643Z,7.81
2017-11-18T13:10:47.627Z,7.86
2017-11-18T13:11:47.614Z,7.98
2017-11-18T13:12:47.590Z,7.80
2017-11-18T13:13:47.576Z,7.80
2017-11-18T13:14:47.557Z,7.81
2017-11-18T13:15:47.537Z,7.69
2017-11-18T13:16:47.526Z,7.71
2017-11-18T13:17:47.485Z,7.69